createdAt,value
2023-04-05T00:00:51.996Z,0
2023-04-05T00:02:53.696Z,0
2023-04-05T00:04:55.028Z,0
2023-04-05T00:06:56.486Z,0
2023-04-05T00:13:01.374Z,0
2023-04-05T00:19:06.679Z,0
2023-04-05T00:23:09.869Z,0
2023-04-05T00:29:14.192Z,0
2023-04-05T00:33:17.225Z,0
2023-04-05T00:35:18.759Z,0
2023-04-05T00:39:22.081Z,0.702
2023-04-05T00:43:25.049Z,0.14
2023-04-05T00:45:27.086Z,0.421
2023-04-05T00:49:30.726Z,0
2023-04-05T00:55:35.763Z,0
2023-04-05T01:00:22.686Z,0
2023-04-05T01:06:27.984Z,0
2023-04-05T01:10:31.730Z,0
2023-04-05T01:12:33.006Z,0
2023-04-05T01:16:36.033Z,0
2023-04-05T01:20:39.340Z,0
2023-04-05T01:22:40.348Z,0
2023-04-05T01:26:44.210Z,0
2023-04-05T01:32:49.292Z,0
2023-04-05T01:38:54.951Z,0
2023-04-05T01:42:57.681Z,0
2023-04-05T01:49:02.219Z,0
2023-04-05T01:53:05.618Z,0
2023-04-05T01:55:07.594Z,0
2023-04-05T01:59:10.520Z,0
2023-04-05T02:03:14.157Z,0
2023-04-05T02:05:15.699Z,0
2023-04-05T02:09:18.755Z,0
2023-04-05T02:15:24.109Z,0
2023-04-05T02:21:29.654Z,0
2023-04-05T02:25:33.172Z,0
2023-04-05T02:31:38.145Z,0
2023-04-05T02:35:40.851Z,0
2023-04-05T02:37:42.065Z,0
2023-04-05T02:41:45.693Z,0
2023-04-05T02:45:48.574Z,0
2023-04-05T02:47:50.324Z,0
2023-04-05T02:51:54.440Z,0
2023-04-05T02:57:58.791Z,0
2023-04-05T03:04:03.677Z,0
2023-04-05T03:08:06.811Z,0
2023-04-05T03:14:11.031Z,0
2023-04-05T03:18:14.258Z,0
2023-04-05T03:20:16.006Z,0
2023-04-05T03:24:19.272Z,0
2023-04-05T03:28:22.576Z,0
2023-04-05T03:30:24.476Z,0
2023-04-05T03:34:28.123Z,0
2023-04-05T03:40:31.963Z,0
2023-04-05T03:44:35.189Z,0
2023-04-05T03:46:37.230Z,0
2023-04-05T03:50:40.654Z,0
2023-04-05T03:56:45.849Z,0
2023-04-05T04:00:49.341Z,0
2023-04-05T04:02:51.372Z,0
2023-04-05T04:06:54.010Z,0
2023-04-05T04:10:57.187Z,0
2023-04-05T04:12:58.640Z,0
2023-04-05T04:17:02.008Z,0
2023-04-05T04:23:07.854Z,0
2023-04-05T04:29:12.929Z,0
2023-04-05T04:33:16.021Z,0
2023-04-05T04:39:20.539Z,0
2023-04-05T04:43:24.211Z,0
2023-04-05T04:45:25.937Z,0
2023-04-05T04:49:29.366Z,0
2023-04-05T04:53:32.753Z,0
2023-04-05T04:55:34.024Z,0
2023-04-05T04:59:36.672Z,0
2023-04-05T05:05:42.374Z,0
2023-04-05T05:11:47.894Z,0
2023-04-05T05:15:51.273Z,0
2023-04-05T05:21:56.302Z,0
2023-04-05T05:25:59.118Z,0
2023-04-05T05:28:00.591Z,0
2023-04-05T05:32:03.998Z,0
2023-04-05T05:36:07.225Z,0
2023-04-05T05:38:10.818Z,0
2023-04-05T05:42:11.518Z,0
2023-04-05T05:48:16.342Z,0
2023-04-05T05:52:19.168Z,0
2023-04-05T05:54:20.691Z,0
2023-04-05T05:58:24.110Z,0
2023-04-05T06:04:28.292Z,0
2023-04-05T06:08:31.446Z,1.123
2023-04-05T06:10:32.721Z,0
2023-04-05T06:14:35.746Z,0
2023-04-05T06:20:39.955Z,0.982
2023-04-05T06:26:44.989Z,0.28
2023-04-05T06:30:48.425Z,2.667
2023-04-05T06:36:53.336Z,1.965
2023-04-05T06:40:56.054Z,0.702
2023-04-05T06:42:57.281Z,1.123
2023-04-05T06:47:00.682Z,2.948
2023-04-05T06:51:03.584Z,0.421
2023-04-05T06:53:04.767Z,6.177
2023-04-05T06:57:07.953Z,3.51
2023-04-05T07:03:11.566Z,3.369
2023-04-05T07:09:16.824Z,2.808
2023-04-05T07:13:20.138Z,4.352
2023-04-05T07:19:24.129Z,1.965
2023-04-05T07:23:26.533Z,2.948
2023-04-05T07:25:28.154Z,0.28
2023-04-05T07:29:30.861Z,1.404
2023-04-05T07:33:33.799Z,3.229
2023-04-05T07:35:34.949Z,0.14
2023-04-05T07:39:38.386Z,0.842
2023-04-05T07:45:42.907Z,0.561
2023-04-05T07:46:26.710Z,0.982
2023-04-05T07:50:29.818Z,2.527
2023-04-05T07:56:34.360Z,2.386
2023-04-05T08:00:37.592Z,2.106
2023-04-05T08:02:39.254Z,2.246
2023-04-05T08:06:41.824Z,3.229
2023-04-05T08:10:45.011Z,3.229
2023-04-05T08:12:46.377Z,4.071
2023-04-05T08:16:49.340Z,2.246
2023-04-05T08:22:53.244Z,1.404
2023-04-05T08:26:56.084Z,4.352
2023-04-05T08:28:57.703Z,3.51
2023-04-05T08:33:00.023Z,1.123
2023-04-05T08:39:04.250Z,0.842
2023-04-05T08:45:07.589Z,1.965
2023-04-05T08:49:09.779Z,1.544
2023-04-05T08:55:13.675Z,4.633
2023-04-05T08:59:16.459Z,1.684
2023-04-05T09:01:17.466Z,1.123
2023-04-05T09:05:20.199Z,1.404
2023-04-05T09:09:23.262Z,2.106
2023-04-05T09:11:24.194Z,0
2023-04-05T09:15:27.590Z,3.65
2023-04-05T09:21:31.807Z,0.702
2023-04-05T09:27:35.481Z,1.684
2023-04-05T09:31:39.107Z,1.123
2023-04-05T09:37:44.008Z,3.229
2023-04-05T09:41:47.282Z,5.335
2023-04-05T09:43:48.545Z,5.475
2023-04-05T09:47:51.374Z,2.106
2023-04-05T09:51:54.003Z,1.684
2023-04-05T09:53:55.449Z,0.421
2023-04-05T09:57:57.942Z,3.088
2023-04-05T10:04:02.879Z,3.931
2023-04-05T10:08:05.855Z,5.616
2023-04-05T10:10:07.760Z,3.229
2023-04-05T10:14:10.832Z,2.246
2023-04-05T10:20:14.513Z,0.702
2023-04-05T10:24:17.725Z,0.982
2023-04-05T10:26:19.188Z,2.948
2023-04-05T10:30:22.514Z,3.79
2023-04-05T10:34:25.271Z,3.931
2023-04-05T10:36:27.140Z,0.561
2023-04-05T10:40:29.456Z,1.684
2023-04-05T10:46:33.106Z,2.667
2023-04-05T10:50:35.612Z,1.965
2023-04-05T10:52:37.113Z,5.896
2023-04-05T10:56:39.809Z,1.263
2023-04-05T11:02:43.478Z,6.458
2023-04-05T11:06:45.841Z,1.123
2023-04-05T11:08:47.425Z,2.667
2023-04-05T11:12:50.396Z,6.879
2023-04-05T11:16:54.581Z,3.931
2023-04-05T11:18:55.349Z,1.404
2023-04-05T11:22:58.681Z,4.914
2023-04-05T11:27:02.237Z,0.702
2023-04-05T11:29:03.314Z,4.212
2023-04-05T11:33:06.794Z,5.054
2023-04-05T11:35:08.153Z,5.616
2023-04-05T11:37:09.772Z,5.054
2023-04-05T11:39:11.260Z,4.914
2023-04-05T11:45:14.818Z,6.458
2023-04-05T11:51:19.235Z,5.475
2023-04-05T11:55:22.418Z,8.845
2023-04-05T12:01:26.664Z,4.914
2023-04-05T12:05:29.631Z,7.862
2023-04-05T12:11:33.606Z,6.037
2023-04-05T12:15:35.898Z,3.229
2023-04-05T12:17:37.431Z,4.773
2023-04-05T12:21:39.976Z,1.404
2023-04-05T12:27:44.242Z,4.773
2023-04-05T12:33:48.530Z,7.722
2023-04-05T12:37:52.254Z,3.79
2023-04-05T12:43:55.889Z,6.177
2023-04-05T12:47:59.988Z,3.088
2023-04-05T12:50:01.049Z,5.756
2023-04-05T12:54:04.815Z,2.667
2023-04-05T12:58:07.444Z,2.246
2023-04-05T13:00:09.188Z,2.527
2023-04-05T13:04:16.332Z,4.212
2023-04-05T13:10:16.130Z,0.14
2023-04-05T13:16:20.651Z,3.088
2023-04-05T13:20:23.423Z,3.229
2023-04-05T13:26:27.880Z,2.948
2023-04-05T13:30:31.235Z,3.65
2023-04-05T13:32:32.459Z,2.667
2023-04-05T13:36:35.398Z,5.054
2023-04-05T13:40:38.029Z,2.246
2023-04-05T13:42:39.659Z,1.263
2023-04-05T13:46:42.085Z,0
2023-04-05T13:52:46.316Z,1.123
2023-04-05T13:56:49.354Z,2.667
2023-04-05T13:58:50.597Z,0.14
2023-04-05T14:02:53.793Z,0.421
2023-04-05T14:08:57.701Z,0.14
2023-04-05T14:13:00.497Z,5.335
2023-04-05T14:15:02.131Z,1.404
2023-04-05T14:19:05.106Z,2.667
2023-04-05T14:23:07.773Z,4.212
2023-04-05T14:25:08.868Z,7.722
2023-04-05T14:29:11.612Z,6.037
2023-04-05T14:31:57.144Z,3.931
2023-04-05T14:35:59.581Z,1.684
2023-04-05T14:40:02.415Z,4.071
2023-04-05T14:46:06.740Z,1.544
2023-04-05T14:52:11.037Z,2.246
2023-04-05T14:56:14.630Z,1.263
2023-04-05T15:00:18.339Z,0
2023-04-05T15:02:19.735Z,0
2023-04-05T15:06:22.471Z,0.14
2023-04-05T15:10:25.502Z,3.088
2023-04-05T15:12:26.414Z,2.106
2023-04-05T15:16:29.004Z,1.544
2023-04-05T15:18:30.870Z,5.054
2023-04-05T15:20:31.933Z,3.229
2023-04-05T15:22:32.947Z,3.51
2023-04-05T15:28:36.900Z,2.948
2023-04-05T15:30:38.537Z,3.369
2023-04-05T15:34:42.151Z,2.106
2023-04-05T15:38:44.412Z,1.544
2023-04-05T15:44:48.984Z,3.229
2023-04-05T15:48:51.999Z,6.879
2023-04-05T15:50:53.179Z,5.756
2023-04-05T15:54:56.172Z,3.931
2023-04-05T15:59:00.103Z,3.79
2023-04-05T16:01:01.335Z,4.352
2023-04-05T16:05:04.284Z,4.071
2023-04-05T16:11:08.550Z,2.667
2023-04-05T16:17:13.312Z,0.28
2023-04-05T16:21:16.329Z,3.229
2023-04-05T16:27:21.214Z,2.948
2023-04-05T16:31:24.516Z,4.633
2023-04-05T16:33:26.175Z,4.212
2023-04-05T16:37:29.728Z,1.825
2023-04-05T16:41:32.809Z,1.404
2023-04-05T16:43:34.282Z,0
2023-04-05T16:47:37.034Z,0.842
2023-04-05T16:53:41.252Z,1.544
2023-04-05T16:59:45.817Z,0.702
2023-04-05T17:03:48.337Z,1.825
2023-04-05T17:09:52.787Z,0.982
2023-04-05T17:13:55.753Z,2.386
2023-04-05T17:15:57.011Z,1.684
2023-04-05T17:20:00.231Z,1.825
2023-04-05T17:24:03.576Z,1.544
2023-04-05T17:26:05.525Z,0.702
2023-04-05T17:30:08.304Z,0
2023-04-05T17:36:12.420Z,0.561
2023-04-05T17:40:15.330Z,0
2023-04-05T17:42:17.165Z,0
2023-04-05T17:46:24.581Z,0.14
2023-04-05T17:52:22.961Z,0
2023-04-05T17:56:25.425Z,1.263
2023-04-05T17:58:26.911Z,0.14
2023-04-05T18:02:29.475Z,0
2023-04-05T18:06:32.356Z,0
2023-04-05T18:08:33.547Z,0
2023-04-05T18:12:36.640Z,0
2023-04-05T18:16:39.433Z,0.702
2023-04-05T18:18:40.836Z,1.965
2023-04-05T18:22:43.595Z,0.14
2023-04-05T18:24:44.633Z,0.982
2023-04-05T18:26:46.424Z,0
2023-04-05T18:28:47.433Z,1.123
2023-04-05T18:34:52.055Z,2.527
2023-04-05T18:40:57.634Z,0.702
2023-04-05T18:45:01.223Z,0.28
2023-04-05T18:51:04.998Z,0.702
2023-04-05T18:55:08.136Z,0.14
2023-04-05T18:59:11.496Z,0
2023-04-05T19:01:12.742Z,0
2023-04-05T19:05:15.930Z,0
2023-04-05T19:07:17.939Z,1.123
2023-04-05T19:09:19.669Z,1.965
2023-04-05T19:11:21.213Z,3.51
2023-04-05T19:17:26.268Z,0
2023-04-05T19:19:27.434Z,0
2023-04-05T19:23:30.137Z,0
2023-04-05T19:27:33.464Z,0
2023-04-05T19:33:37.571Z,1.404
2023-04-05T19:37:40.778Z,1.404
2023-04-05T19:39:41.824Z,1.404
2023-04-05T19:43:45.241Z,0
2023-04-05T19:47:48.409Z,0
2023-04-05T19:49:49.749Z,0
2023-04-05T19:53:52.492Z,0
2023-04-05T19:59:56.976Z,0
2023-04-05T20:06:00.661Z,0
2023-04-05T20:10:03.492Z,0
2023-04-05T20:16:08.440Z,0
2023-04-05T20:20:10.884Z,0
2023-04-05T20:22:11.951Z,0
2023-04-05T20:26:15.167Z,0
2023-04-05T20:30:17.992Z,0.982
2023-04-05T20:32:19.151Z,0.842
2023-04-05T20:36:22.358Z,0
2023-04-05T20:42:27.081Z,0.14
2023-04-05T20:46:30.115Z,0
2023-04-05T20:48:31.279Z,0
2023-04-05T20:58:39.496Z,0
2023-04-05T21:02:42.476Z,0
2023-04-05T21:04:43.944Z,0
2023-04-05T21:08:46.661Z,0
2023-04-05T21:12:49.611Z,1.684
2023-04-05T21:14:51.339Z,0.842
2023-04-05T21:17:36.818Z,0.421
2023-04-05T21:19:38.455Z,0.842
2023-04-05T21:23:41.570Z,0
2023-04-05T21:25:43.183Z,0.702
2023-04-05T21:27:44.402Z,0
2023-04-05T21:29:45.559Z,0
2023-04-05T21:35:49.361Z,0.702
2023-04-05T21:37:51.204Z,0
2023-04-05T21:41:54.427Z,0
2023-04-05T21:45:57.881Z,0
2023-04-05T21:52:02.132Z,0
2023-04-05T21:56:05.014Z,0
2023-04-05T21:58:06.416Z,0
2023-04-05T22:02:09.976Z,0
2023-04-05T22:06:13.145Z,0
2023-04-05T22:08:14.968Z,0
2023-04-05T22:12:18.430Z,0
2023-04-05T22:18:23.568Z,0
2023-04-05T22:24:27.838Z,0
2023-04-05T22:28:31.264Z,0
2023-04-05T22:34:36.181Z,0
2023-04-05T22:38:39.543Z,0
2023-04-05T22:40:40.685Z,0
2023-04-05T22:44:43.831Z,0
2023-04-05T22:48:46.693Z,0
2023-04-05T22:50:48.097Z,0
2023-04-05T22:54:51.048Z,0
2023-04-05T23:00:55.701Z,0
2023-04-05T23:07:01.462Z,0
2023-04-05T23:11:04.109Z,0
2023-04-05T23:17:08.995Z,0
2023-04-05T23:21:12.437Z,0
2023-04-05T23:23:13.596Z,0
2023-04-05T23:27:16.919Z,0
2023-04-05T23:31:19.988Z,0
2023-04-05T23:33:21.532Z,0
2023-04-05T23:37:24.767Z,0
2023-04-05T23:43:29.565Z,0
2023-04-05T23:49:35.120Z,0
2023-04-05T23:53:37.474Z,0
2023-04-05T23:55:38.668Z,0
2023-04-05T23:59:42.222Z,0
